This is the latest recevied weather packets stored in our database for station/object OK2CME-6. If no packets are shown the sender has not sent any weather packets the latest 10 day(s).
| Time | Temp. | Humidity | Pressure | Rain* | Wind** | Luminosity | Snow |
|---|---|---|---|---|---|---|---|
| 1788671242 | 10.56° C | 82% | 1028.6 hPa | 0 mm | - | 21 W/m² | - |
| 1788670042 | 10.56° C | 82% | 1028.4 hPa | 0 mm | - | 8 W/m² | - |
| 1788668842 | 10.56° C | 82% | 1028.2 hPa | 0 mm | - | 1 W/m² | - |
| 1788667642 | 11.11° C | 81% | 1028.3 hPa | 0 mm | - | 0 W/m² | - |
| 1788666442 | 11.11° C | 81% | 1028 hPa | 0 mm | - | 0 W/m² | - |
| 1788665242 | 11.67° C | 79% | 1028 hPa | 0 mm | - | 0 W/m² | - |
| 1788664042 | 11.11° C | 79% | 1027.7 hPa | 0 mm | - | 0 W/m² | - |
| 1788662842 | 11.67° C | 78% | 1027.7 hPa | 0 mm | - | 0 W/m² | - |
| 1788661642 | 11.67° C | 78% | 1027.6 hPa | 0 mm | - | 0 W/m² | - |
| 1788660442 | 11.67° C | 80% | 1027.5 hPa | 0 mm | - | 0 W/m² | - |
| 1788659242 | 12.22° C | 78% | 1027.2 hPa | 0 mm | - | 0 W/m² | - |
| 1788658042 | 12.22° C | 77% | 1027.5 hPa | 0 mm | - | 0 W/m² | - |
| 1788656842 | 12.78° C | 76% | 1027.2 hPa | 0 mm | - | 0 W/m² | - |
| 1788655642 | 12.78° C | 74% | 1026.9 hPa | 0 mm | - | 0 W/m² | - |
| 1788654442 | 12.78° C | 73% | 1027.2 hPa | 0 mm | - | 0 W/m² | - |
| 1788653242 | 12.78° C | 71% | 1027 hPa | 0 mm | - | 0 W/m² | - |
| 1788650842 | 13.89° C | 67% | 1026.7 hPa | 0 mm | - | 0 W/m² | - |
| 1788647242 | 14.44° C | 65% | 1026.7 hPa | 0 mm | - | 0 W/m² | - |
| 1788646042 | 14.44° C | 63% | 1026.5 hPa | 0 mm | - | 0 W/m² | - |
| 1788644842 | 15° C | 63% | 1026.3 hPa | 0 mm | - | 0 W/m² | - |
| 1788643642 | 15° C | 63% | 1026.1 hPa | 0 mm | - | 0 W/m² | - |
| 1788642442 | 15.56° C | 61% | 1026 hPa | 0 mm | - | 0 W/m² | - |
| 1788641242 | 16.11° C | 60% | 1026.1 hPa | 0 mm | - | 0 W/m² | - |
| 1788640042 | 16.11° C | 61% | 1025.7 hPa | 0 mm | - | 0 W/m² | - |
| 1788638842 | 16.11° C | 62% | 1025.8 hPa | 0 mm | - | 0 W/m² | - |
* Rain latest hour (hover to see other rain measurements)
** Current wind speed in m/s (hover to see current wind gust speed)